SEA weather

Public forecast

Using degrees Fahrenheit for public forecast. Weather courtesy of forecast.io.

Current aviation weather report (METAR) for Seattle Tacoma International Airport

Retrieved 2020/08/10 10:53 UTC (37 minutes ago):

KSEA 101053Z 35003KT 10SM CLR 16/11 A3017 RMK AO2 SLP222 T01610111

Aviation forecast (TAF) for Seattle Tacoma International Airport

Retrieved 2020/08/10 06:27 UTC (5 hours ago):

TAF KSEA 100524Z 1006/1112 04004KT P6SM SKC FM102000 35010KT P6SM SCT250 FM110500 04004KT P6SM SCT250